East Lexington, Virginia
Current Conditions -  °F | °C
As of 6:35 PM on Friday 19 Dec 2014 (Local Time) from KHSP Reporting Station
Clear Clear  
Wind Chill: 14°   Ceiling: Unl
Heat Index: 25°   Visibility: 10mi
Dew Point: 20°   Wind: 12mph
Humidity: 82%   Direction: 290°WNW
Pressure: 30.05"   Gusts: NA
Location:  37.7866°N, 79.5193°W
Report Text: KHSP 192335Z AUTO 29010KT 10SM CLR M04/M06 A3005 RMK AO2 T10391065
Loading
Personal Weather Stations






























Interactive Weather Map New forecast layout! Learn more

10-Day Weather Forecast

Advertisements
Track Severe Weather on mobile